Terminal Aerodrome Forecast
Issued by NWS Pueblo, CO

Home | Current Version | Previous Version | Text Only | Print | Product List | Glossary On
Versions: 1 2 3 4 5 6 7 8 9 10 11 12 13 14 15 16 17 18 19 20 21 22 23 24 25 26
000
FTUS45 KPUB 212340
TAFCOS
TAF
KCOS 212340Z 2200/2224 28014G24KT P6SM FEW110 SCT200
     FM220100 24014KT P6SM SCT110
     FM220700 26015G25KT P6SM SCT200 WS020/27040KT
     FM221500 24025G35KT P6SM SCT200=

USA.gov is the U.S. government's official web portal to all federal, state and local government web resources and services.